Huvudsida
METAR-TAF:

METAR-TAF

Flygplatser :

Sandnessjøens flygplats. Stokka

Sandnessjøen, Norge

latitud: 65-58N, longitud: 012-28E, höjd: 1 m

Aktuellt väderrapport

Denna rapport gjordes för 17 minuter sedan, klockan 19:20 UTC
Vind 16 kt från syd/sydväst
Temperatur 10°C
Fuktighet 93%
Tryck 1019 hPa
Sikt 10 km eller mer
Få moln på en höjd av 800 ft
Spridda moln på en höjd av 1200 ft
Brutna moln på en höjd av 2000 ft
skurar i närheten

METAR: ENST 251920Z 20016KT 9999 VCSH FEW008 SCT012 BKN020 10/09 Q1019 RMK WIND 300FT 21018KT

Tid: 21:37 (19:37 UTC)


TAF: saknas

Aktuella väderrapporter och prognoser från 4000 flygplatser (METAR- och TAF-rapporter).

De tillgängliga stationerna syns som gula och röda prickar på kartan.

För musen över prickarna för att se namnen på stationerna.

Klicka sedan för att få väderrapporter och prognoser.

För att ändra kartan: Klicka på de gröna knapparna med ett svart kors på för att zooma in; den gröna knappen med ett streck på för att zooma ut; eller på de gröna pilarna för angränsande kartor.


METAR-TAF: